Time;durP1;ratioP1;P1;durP2;ratioP2;P2;SDS_P1;SDS_P2;PMS_P1;PMS_P2;Temp;Humidity;BMP_temperature;BMP_pressure;BME280_temperature;BME280_humidity;BME280_pressure;Samples;Min_cycle;Max_cycle;Signal;HPM_P1;HPM_P2
2023/12/28 00:01:12;;;;;;;650.43;597.20;;;8.10;99.90;;;;;;5030278;28;20690;-75
2023/12/28 00:03:38;;;;;;;736.73;668.50;;;8.20;99.90;;;;;;5048745;28;20047;-75
2023/12/28 00:06:04;;;;;;;805.40;723.20;;;8.30;99.90;;;;;;5026745;28;20141;-75
2023/12/28 00:08:32;;;;;;;735.40;669.53;;;8.40;99.90;;;;;;5053354;28;20045;-74
2023/12/28 00:10:58;;;;;;;805.27;724.63;;;8.60;99.90;;;;;;5042085;28;20032;-74
2023/12/28 00:13:24;;;;;;;840.13;753.87;;;8.70;99.90;;;;;;5053118;28;20291;-74
2023/12/28 00:15:49;;;;;;;706.53;643.57;;;8.70;99.90;;;;;;5044866;28;20286;-75
2023/12/28 00:18:15;;;;;;;858.03;768.70;;;8.80;99.90;;;;;;5045371;28;20033;-75
2023/12/28 00:20:41;;;;;;;763.93;692.73;;;8.90;99.90;;;;;;5024882;28;20052;-75
2023/12/28 00:23:07;;;;;;;872.60;766.73;;;9.00;99.90;;;;;;5046628;28;20052;-74
2023/12/28 00:25:33;;;;;;;783.93;699.60;;;9.00;99.90;;;;;;5030490;28;20041;-75
2023/12/28 00:27:58;;;;;;;842.73;756.33;;;9.00;99.90;;;;;;5047010;28;20032;-76
2023/12/28 00:30:24;;;;;;;647.90;591.43;;;9.00;99.90;;;;;;5047193;28;20442;-75
2023/12/28 00:32:50;;;;;;;899.77;805.43;;;9.00;99.90;;;;;;5026064;28;20047;-75
2023/12/28 00:35:15;;;;;;;789.63;708.80;;;9.00;99.90;;;;;;5046761;28;20459;-75
2023/12/28 00:37:41;;;;;;;644.23;591.37;;;9.00;99.90;;;;;;5029611;28;20045;-75
2023/12/28 00:40:07;;;;;;;907.73;793.27;;;8.90;99.90;;;;;;5036950;28;20148;-75
2023/12/28 00:42:33;;;;;;;672.83;616.60;;;8.80;99.90;;;;;;5028702;28;20039;-76
2023/12/28 00:44:59;;;;;;;616.40;566.87;;;8.80;99.90;;;;;;5034092;28;20302;-75
2023/12/28 00:47:25;;;;;;;706.33;642.97;;;8.80;99.90;;;;;;5028642;28;20045;-74
2023/12/28 00:49:51;;;;;;;764.70;689.40;;;8.70;99.90;;;;;;5046027;28;20291;-74
2023/12/28 00:52:16;;;;;;;651.67;595.93;;;8.70;99.90;;;;;;5043089;28;20128;-74
2023/12/28 00:54:42;;;;;;;744.00;676.67;;;8.70;99.90;;;;;;5047186;28;20742;-74
2023/12/28 00:57:08;;;;;;;773.90;697.83;;;8.70;99.90;;;;;;5047356;28;20083;-74
2023/12/28 00:59:33;;;;;;;693.90;630.67;;;8.60;99.90;;;;;;5047871;28;20041;-74
2023/12/28 01:01:59;;;;;;;599.47;551.20;;;8.60;99.90;;;;;;5042384;28;20390;-74
2023/12/28 01:04:25;;;;;;;673.10;610.90;;;8.60;99.90;;;;;;5042984;28;20129;-74
2023/12/28 01:06:51;;;;;;;716.00;649.07;;;8.50;99.90;;;;;;5030727;28;20040;-74
2023/12/28 01:09:17;;;;;;;749.10;680.33;;;8.60;99.90;;;;;;5046124;28;20047;-74
2023/12/28 01:11:42;;;;;;;714.70;647.07;;;8.50;99.90;;;;;;5047308;28;20366;-74
2023/12/28 01:14:08;;;;;;;659.87;605.80;;;8.60;99.90;;;;;;5030378;28;20052;-74
2023/12/28 01:16:35;;;;;;;648.93;593.67;;;8.60;99.90;;;;;;5030253;28;20045;-74
2023/12/28 01:19:01;;;;;;;618.37;565.60;;;8.60;99.90;;;;;;5045959;28;20041;-73
2023/12/28 01:21:28;;;;;;;656.90;597.63;;;8.60;99.90;;;;;;5047571;28;20299;-74
2023/12/28 01:23:54;;;;;;;557.63;512.90;;;8.60;99.90;;;;;;5029286;28;20115;-74
2023/12/28 01:26:20;;;;;;;709.47;643.00;;;8.60;99.90;;;;;;5029901;28;20276;-74
2023/12/28 01:28:46;;;;;;;695.90;631.13;;;8.60;99.90;;;;;;5045553;28;21027;-74
2023/12/28 01:31:12;;;;;;;635.27;582.03;;;8.60;99.90;;;;;;5044098;28;20051;-73
2023/12/28 01:33:38;;;;;;;801.57;720.80;;;8.60;99.90;;;;;;5045599;28;20651;-74
2023/12/28 01:36:18;;;;;;;742.33;667.40;;;8.60;99.90;;;;;;5029710;28;20033;-74
2023/12/28 01:38:44;;;;;;;780.63;700.70;;;8.60;99.90;;;;;;5030316;28;20541;-74
2023/12/28 01:41:10;;;;;;;713.07;649.10;;;8.70;99.90;;;;;;5042981;28;20299;-74
2023/12/28 01:43:35;;;;;;;581.77;535.13;;;8.70;99.90;;;;;;5044601;28;20291;-74
2023/12/28 01:46:02;;;;;;;605.63;556.00;;;8.70;99.90;;;;;;5042977;28;20409;-74
2023/12/28 01:48:28;;;;;;;690.90;626.80;;;8.70;99.90;;;;;;5046311;28;20126;-74
2023/12/28 01:50:55;;;;;;;732.27;665.20;;;8.70;99.90;;;;;;5045369;28;20834;-73
2023/12/28 01:53:20;;;;;;;700.63;637.87;;;8.80;99.90;;;;;;5043203;28;20315;-74
2023/12/28 01:55:46;;;;;;;780.27;704.60;;;8.80;99.90;;;;;;5046614;28;20372;-75
2023/12/28 01:58:12;;;;;;;695.40;633.90;;;8.80;99.90;;;;;;5042555;28;20030;-73
2023/12/28 02:00:38;;;;;;;687.37;625.40;;;8.80;99.90;;;;;;5024225;28;20068;-74
2023/12/28 02:03:06;;;;;;;665.90;609.70;;;8.80;99.90;;;;;;5043762;28;20083;-74
2023/12/28 02:05:33;;;;;;;790.63;708.00;;;8.80;99.90;;;;;;5030122;28;20280;-74
2023/12/28 02:07:59;;;;;;;696.00;634.83;;;8.80;99.90;;;;;;5046674;28;20763;-74
2023/12/28 02:10:25;;;;;;;743.20;671.20;;;8.80;99.90;;;;;;5046443;28;20290;-74
2023/12/28 02:12:53;;;;;;;663.80;607.60;;;8.80;99.90;;;;;;5044994;28;20049;-73
2023/12/28 02:15:19;;;;;;;647.90;590.53;;;8.80;99.90;;;;;;5045003;28;20293;-74
2023/12/28 02:17:59;;;;;;;666.07;608.67;;;8.80;99.90;;;;;;5027040;28;20377;-74
2023/12/28 02:20:27;;;;;;;780.03;704.40;;;8.80;99.90;;;;;;5022040;28;20306;-74
2023/12/28 02:22:53;;;;;;;629.33;578.10;;;8.90;99.90;;;;;;5044604;28;20294;-73
2023/12/28 02:25:19;;;;;;;634.67;582.07;;;8.90;99.90;;;;;;5045201;28;20267;-74
2023/12/28 02:27:47;;;;;;;685.43;624.97;;;8.80;99.90;;;;;;5037961;28;20280;-73
2023/12/28 02:30:15;;;;;;;743.60;671.63;;;8.80;99.90;;;;;;5046351;28;20106;-74
2023/12/28 02:32:55;;;;;;;734.87;667.20;;;8.80;99.90;;;;;;5028870;28;20293;-74
2023/12/28 02:35:29;;;;;;;685.90;624.23;;;8.70;99.90;;;;;;5029081;28;20291;-75
2023/12/28 02:37:59;;;;;;;791.23;715.67;;;8.70;99.90;;;;;;5045673;28;20832;-74
2023/12/28 02:40:26;;;;;;;638.73;585.63;;;8.70;99.90;;;;;;5036809;28;20326;-74
2023/12/28 02:42:52;;;;;;;751.07;682.70;;;8.70;99.90;;;;;;5043721;28;20284;-73
2023/12/28 02:45:19;;;;;;;747.90;683.03;;;8.70;99.90;;;;;;5047082;28;20294;-75
2023/12/28 02:47:45;;;;;;;764.20;693.73;;;8.70;99.90;;;;;;5046142;28;20358;-74
2023/12/28 02:50:10;;;;;;;703.57;643.93;;;8.80;99.90;;;;;;5050943;28;20371;-74
2023/12/28 02:52:36;;;;;;;681.57;622.70;;;8.80;99.90;;;;;;5033313;28;20049;-75
2023/12/28 02:55:02;;;;;;;686.63;627.47;;;8.70;99.90;;;;;;5032927;28;20067;-74
2023/12/28 02:57:27;;;;;;;693.13;632.17;;;8.70;99.90;;;;;;5049020;28;20041;-74
2023/12/28 02:59:53;;;;;;;673.07;617.00;;;8.60;99.90;;;;;;5049377;28;20529;-74
2023/12/28 03:02:19;;;;;;;589.93;539.17;;;8.60;99.90;;;;;;5026601;28;20049;-74
2023/12/28 03:04:44;;;;;;;751.10;682.73;;;8.50;99.90;;;;;;5030747;28;20551;-73
2023/12/28 03:07:10;;;;;;;667.17;609.83;;;8.60;99.90;;;;;;5032923;28;20033;-74
2023/12/28 03:09:38;;;;;;;744.43;676.57;;;8.50;99.90;;;;;;5048037;28;20077;-74
2023/12/28 03:12:04;;;;;;;700.37;635.40;;;8.50;99.90;;;;;;5048827;28;20045;-74
2023/12/28 03:14:30;;;;;;;748.80;681.60;;;8.50;99.90;;;;;;5046530;28;20329;-74
2023/12/28 03:16:55;;;;;;;659.97;604.17;;;8.40;99.90;;;;;;5030246;28;20311;-74
2023/12/28 03:19:21;;;;;;;660.37;603.97;;;8.40;99.90;;;;;;5048493;28;20041;-74
2023/12/28 03:21:47;;;;;;;677.00;616.87;;;8.40;99.90;;;;;;5044825;28;20037;-75
2023/12/28 03:24:12;;;;;;;661.83;602.67;;;8.40;99.90;;;;;;5035065;28;20389;-74
2023/12/28 03:26:39;;;;;;;650.47;595.67;;;8.40;99.90;;;;;;5048838;28;20525;-74
2023/12/28 03:29:06;;;;;;;779.47;704.73;;;8.40;99.90;;;;;;5031106;28;20041;-75
2023/12/28 03:31:31;;;;;;;719.70;653.90;;;8.40;99.90;;;;;;5049065;28;20323;-74
2023/12/28 03:33:57;;;;;;;734.80;665.93;;;8.40;99.90;;;;;;5030956;28;20275;-74
2023/12/28 03:36:23;;;;;;;677.40;618.00;;;8.40;99.90;;;;;;5048153;28;20457;-74
2023/12/28 03:38:49;;;;;;;606.80;555.77;;;8.40;99.90;;;;;;5029678;28;20045;-74
2023/12/28 03:41:18;;;;;;;751.23;683.13;;;8.40;99.90;;;;;;5048193;28;20408;-74
2023/12/28 03:43:45;;;;;;;768.63;695.63;;;8.40;99.90;;;;;;5028655;28;20036;-74
2023/12/28 03:46:11;;;;;;;720.07;655.90;;;8.40;99.90;;;;;;5050607;28;20268;-74
2023/12/28 03:48:37;;;;;;;667.27;609.30;;;8.40;99.90;;;;;;5032188;28;20421;-74
2023/12/28 03:51:03;;;;;;;613.93;563.03;;;8.40;99.90;;;;;;5031510;28;20041;-75
2023/12/28 03:53:31;;;;;;;853.80;761.77;;;8.40;99.90;;;;;;5049058;28;20292;-75
2023/12/28 03:55:58;;;;;;;705.23;641.23;;;8.40;99.90;;;;;;5028235;28;20403;-75
2023/12/28 03:58:23;;;;;;;800.53;716.57;;;8.40;99.90;;;;;;5033351;28;20287;-74
2023/12/28 04:00:49;;;;;;;778.20;704.63;;;8.40;99.90;;;;;;5031661;28;20303;-74
2023/12/28 04:03:15;;;;;;;681.83;622.20;;;8.40;99.90;;;;;;5041570;28;20048;-74
2023/12/28 04:05:42;;;;;;;750.63;683.60;;;8.40;99.90;;;;;;5030851;28;20037;-75
2023/12/28 04:08:08;;;;;;;691.70;631.63;;;8.50;99.90;;;;;;5048202;28;20037;-74
2023/12/28 04:10:33;;;;;;;643.33;589.50;;;8.50;99.90;;;;;;5048402;28;20276;-75
2023/12/28 04:13:00;;;;;;;610.50;562.23;;;8.50;99.90;;;;;;5047295;28;20126;-75
2023/12/28 04:15:26;;;;;;;739.07;670.50;;;8.40;99.90;;;;;;5032043;28;20515;-75
2023/12/28 04:17:52;;;;;;;716.37;653.43;;;8.40;99.90;;;;;;5047701;28;20287;-74
2023/12/28 04:20:17;;;;;;;938.20;833.87;;;8.50;99.90;;;;;;5045118;28;20892;-75
2023/12/28 04:22:44;;;;;;;774.03;696.70;;;8.50;99.90;;;;;;5044619;28;20387;-75
2023/12/28 04:25:10;;;;;;;673.60;615.80;;;8.60;99.90;;;;;;5030532;28;20143;-75
2023/12/28 04:27:36;;;;;;;796.37;715.70;;;8.70;99.90;;;;;;5029991;28;20831;-74
2023/12/28 04:30:02;;;;;;;826.60;739.40;;;8.70;99.90;;;;;;5049696;28;20279;-75
2023/12/28 04:32:28;;;;;;;762.33;688.33;;;8.80;99.90;;;;;;5030980;28;20850;-75
2023/12/28 04:34:53;;;;;;;766.10;693.90;;;8.80;99.90;;;;;;5031206;28;20279;-75
2023/12/28 04:37:19;;;;;;;783.50;708.67;;;8.90;99.90;;;;;;5046065;28;20459;-76
2023/12/28 04:39:46;;;;;;;637.23;583.97;;;9.00;99.90;;;;;;5047713;28;20048;-74
2023/12/28 04:42:11;;;;;;;699.20;635.17;;;9.10;99.90;;;;;;5044241;28;20338;-75
2023/12/28 04:44:38;;;;;;;728.10;659.67;;;9.10;99.90;;;;;;5043823;28;20275;-75
2023/12/28 04:47:04;;;;;;;864.77;771.40;;;9.10;99.90;;;;;;5045465;28;20044;-75
2023/12/28 04:49:30;;;;;;;846.43;759.73;;;9.10;99.90;;;;;;5031454;28;20863;-75
2023/12/28 04:51:56;;;;;;;724.23;659.60;;;9.10;99.90;;;;;;5043378;28;20284;-76
2023/12/28 04:54:22;;;;;;;697.77;634.43;;;9.10;99.90;;;;;;5047715;28;20153;-75
2023/12/28 04:56:48;;;;;;;883.67;788.70;;;9.10;99.90;;;;;;5042679;28;20314;-74
2023/12/28 04:59:14;;;;;;;780.50;703.40;;;9.10;99.90;;;;;;5047305;28;20307;-74
2023/12/28 05:01:43;;;;;;;986.87;824.47;;;9.10;99.90;;;;;;5029803;28;20489;-76
2023/12/28 05:04:09;;;;;;;707.93;642.20;;;9.10;99.90;;;;;;5035188;28;20033;-75
2023/12/28 05:06:35;;;;;;;712.50;646.03;;;9.20;99.90;;;;;;5045845;28;20735;-75
2023/12/28 05:09:01;;;;;;;688.47;624.53;;;9.20;99.90;;;;;;5041107;28;20296;-75
2023/12/28 05:11:27;;;;;;;696.70;632.80;;;9.20;99.90;;;;;;5029687;28;20055;-75
2023/12/28 05:13:53;;;;;;;780.20;701.80;;;9.20;99.90;;;;;;5029941;28;20045;-74
2023/12/28 05:16:19;;;;;;;804.90;724.20;;;9.20;99.90;;;;;;5024665;28;20276;-74
2023/12/28 05:18:46;;;;;;;720.53;654.37;;;9.20;99.90;;;;;;5043611;28;20688;-76
2023/12/28 05:21:14;;;;;;;876.37;781.67;;;9.30;99.90;;;;;;5030158;28;20279;-75
2023/12/28 05:23:40;;;;;;;939.40;795.73;;;9.40;99.90;;;;;;5043671;28;20306;-76
2023/12/28 05:26:06;;;;;;;764.03;690.10;;;9.40;99.90;;;;;;5030316;28;20775;-75
2023/12/28 05:28:32;;;;;;;830.67;746.40;;;9.50;99.90;;;;;;5042621;28;20531;-74
2023/12/28 05:31:00;;;;;;;917.50;818.47;;;9.40;99.90;;;;;;5046684;28;20067;-74
2023/12/28 05:33:26;;;;;;;781.87;705.63;;;9.40;99.90;;;;;;5033731;28;20287;-74
2023/12/28 05:35:52;;;;;;;962.53;803.90;;;9.40;99.90;;;;;;5046029;28;20276;-75
2023/12/28 05:38:18;;;;;;;813.53;735.47;;;9.30;99.90;;;;;;5044230;28;20036;-75
2023/12/28 05:40:47;;;;;;;801.73;722.07;;;9.30;99.90;;;;;;5031989;28;20079;-74
2023/12/28 05:43:12;;;;;;;754.67;683.27;;;9.40;99.90;;;;;;5025767;28;20036;-75
2023/12/28 05:45:38;;;;;;;708.07;643.93;;;9.30;99.90;;;;;;5024306;28;20275;-75
2023/12/28 05:48:04;;;;;;;917.17;804.57;;;9.30;99.90;;;;;;5025687;28;20536;-75
2023/12/28 05:50:30;;;;;;;848.20;761.10;;;9.30;99.90;;;;;;5029119;28;20041;-74
2023/12/28 05:52:56;;;;;;;804.97;722.77;;;9.50;99.90;;;;;;5046297;28;20287;-75
2023/12/28 05:55:22;;;;;;;818.20;735.00;;;9.50;99.90;;;;;;5049227;28;20297;-74
2023/12/28 05:57:47;;;;;;;822.97;737.57;;;9.50;99.90;;;;;;5047980;28;20037;-74
2023/12/28 06:00:14;;;;;;;734.83;666.87;;;9.40;99.90;;;;;;5047545;28;20049;-74
2023/12/28 06:02:41;;;;;;;738.77;674.17;;;9.40;99.90;;;;;;5029761;28;20101;-75
2023/12/28 06:05:07;;;;;;;834.50;751.50;;;9.40;99.90;;;;;;5027752;28;20379;-75
2023/12/28 06:07:33;;;;;;;745.50;673.70;;;9.40;99.90;;;;;;5047088;28;20279;-75
2023/12/28 06:09:59;;;;;;;834.40;752.63;;;9.40;99.90;;;;;;5027696;28;20294;-75
2023/12/28 06:12:24;;;;;;;751.57;683.13;;;9.40;99.90;;;;;;5042017;28;20272;-74
2023/12/28 06:14:50;;;;;;;819.33;737.37;;;9.40;99.90;;;;;;5045698;28;20056;-74
2023/12/28 06:17:18;;;;;;;784.10;705.10;;;9.40;99.90;;;;;;5025069;28;20576;-74
2023/12/28 06:19:44;;;;;;;834.10;747.80;;;9.40;99.90;;;;;;5046903;28;20463;-75
2023/12/28 06:22:10;;;;;;;828.67;743.77;;;9.50;99.90;;;;;;5033262;28;20283;-76
2023/12/28 06:24:40;;;;;;;871.93;781.47;;;9.50;99.90;;;;;;5050490;28;20288;-74
2023/12/28 06:27:06;;;;;;;865.57;776.57;;;9.40;99.90;;;;;;5025665;28;20327;-74
2023/12/28 06:29:32;;;;;;;804.17;723.10;;;9.40;99.90;;;;;;5029387;28;20295;-75
2023/12/28 06:31:57;;;;;;;826.93;744.77;;;9.50;99.90;;;;;;5032456;28;20310;-75
2023/12/28 06:34:23;;;;;;;1115.87;826.03;;;9.60;99.90;;;;;;5032137;28;20124;-74
2023/12/28 06:36:49;;;;;;;976.43;797.03;;;9.70;99.90;;;;;;5050547;28;20489;-75
2023/12/28 06:39:15;;;;;;;949.77;836.67;;;9.80;99.90;;;;;;5030786;28;20038;-74
2023/12/28 06:41:40;;;;;;;724.93;659.40;;;9.80;99.90;;;;;;5047985;28;20318;-75
2023/12/28 06:44:06;;;;;;;893.37;799.00;;;9.80;99.90;;;;;;5034708;28;20433;-74
2023/12/28 06:46:32;;;;;;;886.27;793.07;;;9.90;99.90;;;;;;5049150;28;20040;-75
2023/12/28 06:48:58;;;;;;;1378.00;948.60;;;9.90;99.90;;;;;;5047740;28;20535;-75
2023/12/28 06:51:25;;;;;;;1083.93;862.77;;;10.10;99.90;;;;;;5042543;28;20037;-75
2023/12/28 06:53:51;;;;;;;1005.03;819.23;;;10.10;99.90;;;;;;5032967;28;20269;-75
2023/12/28 06:56:17;;;;;;;982.07;835.30;;;10.10;99.90;;;;;;5047029;28;20270;-74
2023/12/28 06:58:43;;;;;;;868.50;776.37;;;10.00;99.90;;;;;;5028772;28;20524;-74
2023/12/28 07:01:08;;;;;;;799.17;717.60;;;9.90;99.90;;;;;;5047221;28;20288;-74
2023/12/28 07:03:34;;;;;;;841.83;753.07;;;9.90;99.90;;;;;;5042372;28;20131;-73
2023/12/28 07:06:00;;;;;;;931.73;828.37;;;9.90;99.90;;;;;;5044695;28;20524;-74
2023/12/28 07:08:26;;;;;;;815.60;730.20;;;9.90;99.90;;;;;;5046527;28;20060;-74
2023/12/28 07:10:52;;;;;;;1233.03;892.93;;;9.80;99.90;;;;;;5044853;28;20048;-74
2023/12/28 07:13:17;;;;;;;802.53;717.40;;;9.80;99.90;;;;;;5028713;28;20481;-74
2023/12/28 07:15:43;;;;;;;845.57;757.90;;;9.80;99.90;;;;;;5031672;28;20135;-75
2023/12/28 07:18:09;;;;;;;891.83;795.43;;;9.80;99.90;;;;;;5033195;28;20037;-75
2023/12/28 07:20:34;;;;;;;1276.67;910.73;;;9.90;99.90;;;;;;5050317;28;20099;-74
2023/12/28 07:23:00;;;;;;;932.30;782.60;;;9.90;99.90;;;;;;5033227;28;20088;-76
2023/12/28 07:25:26;;;;;;;1139.53;860.70;;;9.90;99.90;;;;;;5027727;28;20033;-75
2023/12/28 07:27:52;;;;;;;886.63;785.10;;;9.90;99.90;;;;;;5032342;28;20047;-75
2023/12/28 07:30:17;;;;;;;1025.83;829.60;;;9.90;99.90;;;;;;5032886;28;20045;-75
2023/12/28 07:32:44;;;;;;;852.87;756.43;;;9.90;99.90;;;;;;5032986;28;20132;-75
2023/12/28 07:35:10;;;;;;;941.93;805.73;;;10.00;99.90;;;;;;5049300;28;20045;-75
2023/12/28 07:37:36;;;;;;;1104.77;834.63;;;9.90;99.90;;;;;;5048938;28;20283;-75
2023/12/28 07:40:03;;;;;;;1062.70;830.87;;;9.90;99.90;;;;;;5050313;28;20299;-74
2023/12/28 07:42:29;;;;;;;844.70;738.93;;;9.90;99.90;;;;;;5026995;28;20044;-74
2023/12/28 07:44:54;;;;;;;747.57;672.23;;;9.90;99.90;;;;;;5026572;28;20276;-74
2023/12/28 07:47:22;;;;;;;1440.47;873.27;;;9.90;99.90;;;;;;5040773;28;20025;-74
2023/12/28 07:49:48;;;;;;;825.90;743.57;;;10.00;99.90;;;;;;5047827;28;20037;-74
2023/12/28 07:52:14;;;;;;;1321.27;856.90;;;10.00;99.90;;;;;;5043097;28;20344;-75
2023/12/28 07:54:39;;;;;;;848.03;754.70;;;10.00;99.90;;;;;;5027420;28;20554;-76
2023/12/28 07:57:05;;;;;;;973.77;808.47;;;10.00;99.90;;;;;;5045440;28;20044;-75
2023/12/28 07:59:31;;;;;;;968.87;750.23;;;10.00;99.90;;;;;;5029068;28;20072;-75
2023/12/28 08:01:57;;;;;;;958.07;802.10;;;10.10;99.90;;;;;;5030870;28;20041;-75
2023/12/28 08:04:23;;;;;;;918.40;810.97;;;10.00;99.90;;;;;;5043586;28;20358;-75
2023/12/28 08:06:48;;;;;;;1266.40;903.53;;;10.10;99.90;;;;;;5048205;28;20371;-76
2023/12/28 08:09:14;;;;;;;863.30;767.23;;;10.00;99.90;;;;;;5031178;28;20040;-74
2023/12/28 08:11:40;;;;;;;790.03;710.13;;;10.00;99.90;;;;;;5030672;28;20516;-75
2023/12/28 08:14:05;;;;;;;953.53;804.67;;;10.00;99.90;;;;;;5018819;28;20048;-75
2023/12/28 08:16:31;;;;;;;785.70;708.50;;;10.00;99.90;;;;;;5020014;28;20456;-74
2023/12/28 08:18:57;;;;;;;1152.83;858.87;;;10.00;99.90;;;;;;5041625;28;20043;-75
2023/12/28 08:21:23;;;;;;;1022.43;828.37;;;10.00;99.90;;;;;;5044475;28;20087;-74
2023/12/28 08:23:49;;;;;;;1156.03;849.13;;;10.10;99.90;;;;;;5044110;28;20049;-75
2023/12/28 08:26:14;;;;;;;826.77;739.73;;;10.10;99.90;;;;;;5047365;28;20284;-75
2023/12/28 08:28:40;;;;;;;840.87;745.23;;;10.10;99.90;;;;;;5046815;28;20055;-74
2023/12/28 08:31:08;;;;;;;922.13;812.23;;;10.00;99.90;;;;;;5044812;28;20041;-74
2023/12/28 08:33:35;;;;;;;743.27;669.17;;;10.10;99.90;;;;;;5029223;28;20123;-74
2023/12/28 08:36:04;;;;;;;1294.03;910.23;;;10.00;99.90;;;;;;5026704;28;20267;-74
2023/12/28 08:38:29;;;;;;;977.40;833.13;;;10.00;99.90;;;;;;5029852;28;20290;-74
2023/12/28 08:40:55;;;;;;;858.27;763.83;;;10.00;99.90;;;;;;5045038;28;20295;-73
2023/12/28 08:43:21;;;;;;;971.90;835.60;;;10.00;99.90;;;;;;5045634;28;20039;-75
2023/12/28 08:45:46;;;;;;;921.87;811.80;;;10.00;99.90;;;;;;5028318;28;20033;-74
2023/12/28 08:48:12;;;;;;;1011.07;829.27;;;10.00;99.90;;;;;;5046055;28;20271;-74
2023/12/28 08:50:37;;;;;;;892.87;786.87;;;10.00;99.90;;;;;;5045984;28;20425;-74
2023/12/28 08:53:03;;;;;;;1078.33;835.70;;;10.00;99.90;;;;;;5046093;28;20045;-75
2023/12/28 08:55:29;;;;;;;1013.97;814.77;;;10.00;99.90;;;;;;5045767;28;20036;-75
2023/12/28 08:57:55;;;;;;;1086.17;822.57;;;10.00;99.90;;;;;;5047371;28;20190;-74
2023/12/28 09:00:20;;;;;;;858.30;766.90;;;10.10;99.90;;;;;;5045845;28;20048;-74
2023/12/28 09:02:46;;;;;;;1238.47;884.40;;;10.00;99.90;;;;;;5029957;28;20452;-75
2023/12/28 09:05:12;;;;;;;878.10;782.97;;;10.00;99.90;;;;;;5028932;28;20079;-75
2023/12/28 09:07:42;;;;;;;938.70;799.27;;;10.00;99.90;;;;;;5047485;28;20044;-74
2023/12/28 09:10:10;;;;;;;1499.20;947.33;;;10.00;99.90;;;;;;5028502;28;20037;-75
2023/12/28 09:12:36;;;;;;;890.97;784.83;;;10.10;99.90;;;;;;5029564;28;20718;-75
2023/12/28 09:15:01;;;;;;;866.43;771.23;;;10.10;99.90;;;;;;5041431;28;20307;-74
2023/12/28 09:17:27;;;;;;;984.00;833.00;;;10.10;99.90;;;;;;5042775;28;20040;-74
2023/12/28 09:19:53;;;;;;;845.07;753.03;;;10.20;99.90;;;;;;5026978;28;20040;-74
2023/12/28 09:22:18;;;;;;;992.20;785.37;;;10.20;99.90;;;;;;5024837;28;20567;-74
2023/12/28 09:24:44;;;;;;;879.10;785.10;;;10.30;99.90;;;;;;5044059;28;20454;-74
2023/12/28 09:27:10;;;;;;;951.37;803.20;;;10.20;99.90;;;;;;5043490;28;20052;-74
2023/12/28 09:29:35;;;;;;;922.73;806.50;;;10.30;99.90;;;;;;5029120;28;20124;-75
2023/12/28 09:32:01;;;;;;;864.90;775.37;;;10.30;99.90;;;;;;5043395;28;20474;-74
2023/12/28 09:34:27;;;;;;;1030.23;866.97;;;10.20;99.90;;;;;;5042976;28;20087;-74
2023/12/28 09:36:52;;;;;;;1245.30;925.20;;;10.20;99.90;;;;;;5045336;28;20052;-74
2023/12/28 09:39:19;;;;;;;1066.87;848.70;;;10.20;99.90;;;;;;5029131;28;20505;-73
2023/12/28 09:41:53;;;;;;;1025.57;834.40;;;10.20;99.90;;;;;;5048251;28;20052;-74
2023/12/28 09:44:20;;;;;;;966.97;828.70;;;10.20;99.90;;;;;;5028210;28;20349;-74
2023/12/28 09:46:46;;;;;;;1238.63;892.73;;;10.30;99.90;;;;;;5049147;28;20292;-74
2023/12/28 09:49:11;;;;;;;965.37;839.07;;;10.30;99.90;;;;;;5023072;28;20512;-74
2023/12/28 09:51:37;;;;;;;997.57;825.33;;;10.30;99.90;;;;;;5046239;28;20734;-75
2023/12/28 09:54:06;;;;;;;1006.97;834.60;;;10.30;99.90;;;;;;5043620;28;20395;-74
2023/12/28 09:56:33;;;;;;;1060.60;829.90;;;10.30;99.90;;;;;;5029001;28;20041;-75
2023/12/28 09:58:59;;;;;;;977.60;818.80;;;10.30;99.90;;;;;;5043163;28;20299;-76
2023/12/28 10:01:25;;;;;;;1184.30;889.70;;;10.30;99.90;;;;;;5029042;28;20983;-74
2023/12/28 10:03:51;;;;;;;987.27;831.50;;;10.30;99.90;;;;;;5029257;28;20818;-74
2023/12/28 10:06:17;;;;;;;893.50;797.47;;;10.30;99.90;;;;;;5048010;28;20045;-74
2023/12/28 10:08:49;;;;;;;1040.00;821.57;;;10.30;99.90;;;;;;5033374;28;20043;-74
2023/12/28 10:11:17;;;;;;;930.03;797.77;;;10.30;99.90;;;;;;5032198;28;20094;-74
2023/12/28 10:13:43;;;;;;;860.40;772.70;;;10.30;99.90;;;;;;5047763;28;20471;-74
2023/12/28 10:16:12;;;;;;;890.53;793.13;;;10.30;99.90;;;;;;5023227;28;20384;-74
2023/12/28 10:18:42;;;;;;;939.70;825.47;;;10.30;99.90;;;;;;5031654;28;20295;-74
2023/12/28 10:21:08;;;;;;;1100.13;855.90;;;10.30;99.90;;;;;;5040336;28;20304;-74
2023/12/28 10:23:38;;;;;;;1077.47;861.13;;;10.30;99.90;;;;;;5042565;28;20900;-74
2023/12/28 10:26:05;;;;;;;951.63;801.57;;;10.30;99.90;;;;;;5052073;28;20267;-76
2023/12/28 10:28:38;;;;;;;1412.20;943.97;;;10.30;99.90;;;;;;5032017;28;20295;-74
2023/12/28 10:31:04;;;;;;;962.13;805.77;;;10.30;99.90;;;;;;5042558;28;20302;-75
2023/12/28 10:33:36;;;;;;;963.57;824.90;;;10.30;99.90;;;;;;5022424;28;20299;-74
2023/12/28 10:36:07;;;;;;;926.67;808.87;;;10.30;99.90;;;;;;5047907;28;20299;-74
2023/12/28 10:38:37;;;;;;;998.10;837.17;;;10.30;99.90;;;;;;5048972;28;20430;-73
2023/12/28 10:41:15;;;;;;;935.03;808.83;;;10.30;99.90;;;;;;5033307;28;20667;-74
2023/12/28 10:44:01;;;;;;;1254.47;913.00;;;10.30;99.90;;;;;;5046811;28;20853;-75
2023/12/28 10:46:29;;;;;;;1046.57;836.37;;;10.40;99.90;;;;;;5044104;28;20798;-74
2023/12/28 10:49:14;;;;;;;828.57;740.27;;;10.40;99.90;;;;;;5026278;28;20295;-75
2023/12/28 10:51:45;;;;;;;1142.82;862.60;;;10.40;99.90;;;;;;5031620;28;20803;-75
2023/12/28 10:54:44;;;;;;;1367.10;924.73;;;10.40;99.90;;;;;;5044922;28;20500;-76
2023/12/28 10:57:33;;;;;;;1308.97;928.70;;;10.50;99.90;;;;;;5028919;28;20290;-74
2023/12/28 11:00:13;;;;;;;870.23;781.17;;;10.50;99.90;;;;;;5040746;28;20822;-74
2023/12/28 11:02:44;;;;;;;939.10;806.33;;;10.50;99.90;;;;;;5025110;28;20778;-74
2023/12/28 11:05:12;;;;;;;1220.50;863.47;;;10.50;99.90;;;;;;5035516;28;20375;-75
2023/12/28 11:07:39;;;;;;;955.80;821.13;;;10.60;99.90;;;;;;5031370;28;20308;-74
2023/12/28 11:10:07;;;;;;;970.03;833.33;;;10.50;99.90;;;;;;5047551;28;20295;-75
2023/12/28 11:12:33;;;;;;;804.93;723.10;;;10.50;99.90;;;;;;5047353;28;20303;-75
2023/12/28 11:14:59;;;;;;;1023.10;790.10;;;10.50;99.90;;;;;;5031425;28;20329;-75
2023/12/28 11:17:26;;;;;;;872.20;776.07;;;10.50;99.90;;;;;;5028408;28;20291;-74
2023/12/28 11:19:53;;;;;;;1180.27;891.37;;;10.50;99.90;;;;;;5046736;28;20362;-75
2023/12/28 11:22:23;;;;;;;1037.10;818.40;;;10.50;99.90;;;;;;5023273;28;20307;-76
2023/12/28 11:24:53;;;;;;;886.63;776.83;;;10.50;99.90;;;;;;5043340;28;20304;-75
2023/12/28 11:27:19;;;;;;;1014.10;813.97;;;10.50;99.90;;;;;;5045661;28;20299;-75
2023/12/28 11:29:47;;;;;;;974.83;831.10;;;10.50;99.90;;;;;;5048986;28;20275;-75
2023/12/28 11:32:13;;;;;;;953.03;826.43;;;10.50;99.90;;;;;;5051783;28;20339;-75
2023/12/28 11:34:40;;;;;;;1021.37;824.40;;;10.50;99.90;;;;;;5037694;28;20299;-75
2023/12/28 11:37:18;;;;;;;964.80;778.43;;;10.50;99.90;;;;;;5043804;28;20299;-75
2023/12/28 11:39:44;;;;;;;900.20;786.13;;;10.50;99.90;;;;;;5053551;28;20783;-76
2023/12/28 11:42:11;;;;;;;956.77;822.73;;;10.50;99.90;;;;;;5053486;28;20340;-76
2023/12/28 11:44:44;;;;;;;1009.00;827.60;;;10.40;99.90;;;;;;5046879;28;20048;-76
2023/12/28 11:47:14;;;;;;;1134.90;871.30;;;10.30;99.90;;;;;;5024477;28;20295;-75
2023/12/28 11:49:40;;;;;;;851.80;761.70;;;10.40;99.90;;;;;;5028058;28;20321;-74
2023/12/28 11:52:07;;;;;;;1140.13;878.57;;;10.40;99.90;;;;;;5046107;28;20353;-75
2023/12/28 11:54:32;;;;;;;875.20;780.73;;;10.40;99.90;;;;;;5031807;28;20388;-74
2023/12/28 11:56:58;;;;;;;1054.93;830.10;;;10.40;99.90;;;;;;5044314;28;20275;-74
2023/12/28 11:59:24;;;;;;;1302.27;891.77;;;10.40;99.90;;;;;;5047964;28;20833;-75
2023/12/28 12:01:51;;;;;;;1150.63;867.67;;;10.40;99.90;;;;;;5045062;28;20127;-75
2023/12/28 12:04:20;;;;;;;796.87;716.23;;;10.40;99.80;;;;;;5048425;28;20044;-76
2023/12/28 12:06:47;;;;;;;884.20;780.37;;;10.40;99.90;;;;;;5038729;28;20995;-75
2023/12/28 12:09:14;;;;;;;1016.33;821.47;;;10.40;99.90;;;;;;5040668;28;20660;-74
2023/12/28 12:11:40;;;;;;;934.13;809.03;;;10.40;99.90;;;;;;5032124;28;20279;-76